createdAt,value
2018-07-22T00:00:13.085Z,50.18
2018-07-22T00:00:44.710Z,50.15
2018-07-22T00:01:16.302Z,50.11
2018-07-22T00:01:47.876Z,50.22
2018-07-22T00:02:19.458Z,50.38
2018-07-22T00:02:51.037Z,50.39
2018-07-22T00:03:22.637Z,50.35
2018-07-22T00:03:54.235Z,50.33
2018-07-22T00:04:25.831Z,50.32
2018-07-22T00:04:57.413Z,50.35
2018-07-22T00:05:29.065Z,50.35
2018-07-22T00:06:00.669Z,50.41
2018-07-22T00:06:32.244Z,50.34
2018-07-22T00:07:03.830Z,50.17
2018-07-22T00:07:35.414Z,50.16
2018-07-22T00:08:07.069Z,50.19
2018-07-22T00:08:38.657Z,50.09
2018-07-22T00:09:10.251Z,50.07
2018-07-22T00:09:41.848Z,50.15
2018-07-22T00:10:13.430Z,50.04
2018-07-22T00:10:44.996Z,49.97
2018-07-22T00:11:16.601Z,49.97
2018-07-22T00:11:48.209Z,49.77
2018-07-22T00:12:19.783Z,49.81
2018-07-22T00:12:51.366Z,49.73
2018-07-22T00:13:22.984Z,49.70
2018-07-22T00:13:54.585Z,49.70
2018-07-22T00:14:26.184Z,49.73
2018-07-22T00:14:57.779Z,49.71
2018-07-22T00:15:29.365Z,49.69
2018-07-22T00:16:00.932Z,49.55
2018-07-22T00:16:32.543Z,49.64
2018-07-22T00:17:04.120Z,49.67
2018-07-22T00:17:35.707Z,49.77
2018-07-22T00:18:07.293Z,49.91
2018-07-22T00:18:38.903Z,49.78
2018-07-22T00:19:10.485Z,49.70
2018-07-22T00:19:42.056Z,49.69
2018-07-22T00:20:13.633Z,49.71
2018-07-22T00:20:45.273Z,49.63
2018-07-22T00:21:16.853Z,49.71
2018-07-22T00:21:48.458Z,49.74
2018-07-22T00:22:20.028Z,49.82
2018-07-22T00:22:51.604Z,49.88
2018-07-22T00:23:23.204Z,49.88
2018-07-22T00:23:54.803Z,49.91
2018-07-22T00:24:26.376Z,49.95
2018-07-22T00:24:57.984Z,49.88
2018-07-22T00:25:29.565Z,49.83
2018-07-22T00:26:01.169Z,49.91
2018-07-22T00:26:32.752Z,49.91
2018-07-22T00:27:04.329Z,49.94
2018-07-22T00:27:35.929Z,50.00
2018-07-22T00:28:07.539Z,49.97
2018-07-22T00:28:39.145Z,50.06
2018-07-22T00:29:10.792Z,50.09
2018-07-22T00:29:42.393Z,50.11
2018-07-22T00:30:14.005Z,50.14
2018-07-22T00:30:45.605Z,49.97
2018-07-22T00:31:17.189Z,49.92
2018-07-22T00:31:48.779Z,49.91
2018-07-22T00:32:20.349Z,49.90
2018-07-22T00:32:51.949Z,50.04
2018-07-22T00:33:23.613Z,49.98
2018-07-22T00:33:55.226Z,50.09
2018-07-22T00:34:26.811Z,50.02
2018-07-22T00:34:58.393Z,50.09
2018-07-22T00:35:29.970Z,49.96
2018-07-22T00:36:01.620Z,50.00
2018-07-22T00:36:33.220Z,50.02
2018-07-22T00:37:04.801Z,50.09
2018-07-22T00:37:36.391Z,50.24
2018-07-22T00:38:07.983Z,50.07
2018-07-22T00:38:39.600Z,50.34
2018-07-22T00:39:11.176Z,50.02
2018-07-22T00:39:42.757Z,49.90
2018-07-22T00:40:14.341Z,50.01
2018-07-22T00:40:45.926Z,50.01
2018-07-22T00:41:17.502Z,49.96
2018-07-22T00:41:49.081Z,50.04
2018-07-22T00:42:20.690Z,50.09
2018-07-22T00:42:52.271Z,50.09
2018-07-22T00:43:23.868Z,50.12
2018-07-22T00:43:55.546Z,50.13
2018-07-22T00:44:27.134Z,50.17
2018-07-22T00:44:58.733Z,50.23
2018-07-22T00:45:30.390Z,50.20
2018-07-22T00:46:01.968Z,50.19
2018-07-22T00:46:33.536Z,50.21
2018-07-22T00:47:05.137Z,50.25
2018-07-22T00:47:36.731Z,50.13
2018-07-22T00:48:08.328Z,50.18
2018-07-22T00:48:39.932Z,50.21
2018-07-22T00:49:11.537Z,50.15
2018-07-22T00:49:43.142Z,50.21
2018-07-22T00:50:14.754Z,50.13
2018-07-22T00:50:46.381Z,50.27
2018-07-22T00:51:17.947Z,50.25
2018-07-22T00:51:49.526Z,50.31
2018-07-22T00:52:21.173Z,50.38
2018-07-22T00:52:52.767Z,50.39
2018-07-22T00:53:24.353Z,50.40
2018-07-22T00:53:55.937Z,50.43
2018-07-22T00:54:27.503Z,50.48
2018-07-22T00:54:59.076Z,50.48
2018-07-22T00:55:30.682Z,50.47
2018-07-22T00:56:02.266Z,50.67
2018-07-22T00:56:33.855Z,50.59
2018-07-22T00:57:05.489Z,50.36
2018-07-22T00:57:37.067Z,50.43
2018-07-22T00:58:08.652Z,50.52
2018-07-22T00:58:40.253Z,50.47
2018-07-22T00:59:11.838Z,50.47
2018-07-22T00:59:43.436Z,50.41
2018-07-22T01:00:15.042Z,50.38
2018-07-22T01:00:46.621Z,50.43
2018-07-22T01:01:18.201Z,50.61
2018-07-22T01:01:49.805Z,50.63
2018-07-22T01:02:21.429Z,50.68
2018-07-22T01:02:53.003Z,50.83
2018-07-22T01:03:24.613Z,50.80
2018-07-22T01:03:56.193Z,50.82
2018-07-22T01:04:27.787Z,51.25
2018-07-22T01:04:59.383Z,51.27
2018-07-22T01:05:30.956Z,51.29
2018-07-22T01:06:02.534Z,51.47
2018-07-22T01:06:34.103Z,51.48
2018-07-22T01:07:05.710Z,51.41
2018-07-22T01:07:37.293Z,51.53
2018-07-22T01:08:08.913Z,51.47
2018-07-22T01:08:40.498Z,51.48
2018-07-22T01:09:12.093Z,51.33
2018-07-22T01:09:43.691Z,51.25
2018-07-22T01:10:15.279Z,51.46
2018-07-22T01:10:46.867Z,51.27
2018-07-22T01:11:18.474Z,51.26
2018-07-22T01:11:50.068Z,51.23
2018-07-22T01:12:21.664Z,51.32
2018-07-22T01:12:53.277Z,51.31
2018-07-22T01:13:24.905Z,51.34
2018-07-22T01:13:56.481Z,51.35
2018-07-22T01:14:28.081Z,51.37
2018-07-22T01:14:59.685Z,51.34
2018-07-22T01:15:31.280Z,51.33
2018-07-22T01:16:02.861Z,51.45
2018-07-22T01:16:34.438Z,51.59
2018-07-22T01:17:06.019Z,51.63
2018-07-22T01:17:37.661Z,51.55
2018-07-22T01:18:09.245Z,51.55
2018-07-22T01:18:40.836Z,51.55
2018-07-22T01:19:12.417Z,51.51
2018-07-22T01:19:44.005Z,51.51
2018-07-22T01:20:15.658Z,51.68
2018-07-22T01:20:47.261Z,51.51
2018-07-22T01:21:18.844Z,52.31
2018-07-22T01:21:50.425Z,51.66
2018-07-22T01:22:22.025Z,51.90
2018-07-22T01:22:53.609Z,52.17
2018-07-22T01:23:25.193Z,51.45
2018-07-22T01:23:56.779Z,51.31
2018-07-22T01:24:28.365Z,51.32
2018-07-22T01:24:59.973Z,51.34
2018-07-22T01:25:31.607Z,51.28
2018-07-22T01:26:03.224Z,51.19
2018-07-22T01:26:34.824Z,51.25
2018-07-22T01:27:06.470Z,51.21
2018-07-22T01:27:38.024Z,51.11
2018-07-22T01:28:09.606Z,51.05
2018-07-22T01:28:41.193Z,51.25
2018-07-22T01:29:12.793Z,51.32
2018-07-22T01:29:44.381Z,51.11
2018-07-22T01:30:16.016Z,51.23
2018-07-22T01:30:47.608Z,51.16
2018-07-22T01:31:19.193Z,50.97
2018-07-22T01:31:50.770Z,50.98
2018-07-22T01:32:22.359Z,50.92
2018-07-22T01:32:53.951Z,50.78
2018-07-22T01:33:25.524Z,50.83
2018-07-22T01:33:57.125Z,51.00
2018-07-22T01:34:28.699Z,51.07
2018-07-22T01:35:00.285Z,51.06
2018-07-22T01:35:31.933Z,51.01
2018-07-22T01:36:03.537Z,51.00
2018-07-22T01:36:35.117Z,50.98
2018-07-22T01:37:06.698Z,51.06
2018-07-22T01:37:38.288Z,51.06
2018-07-22T01:38:09.873Z,50.97
2018-07-22T01:38:41.454Z,50.88
2018-07-22T01:39:13.088Z,51.03
2018-07-22T01:39:44.694Z,51.00
2018-07-22T01:40:16.309Z,51.03
2018-07-22T01:40:47.893Z,51.15
2018-07-22T01:41:19.500Z,51.29
2018-07-22T01:41:51.109Z,51.31
2018-07-22T01:42:22.717Z,51.30
2018-07-22T01:42:54.289Z,51.35
2018-07-22T01:43:25.884Z,51.32
2018-07-22T01:43:57.493Z,51.34
2018-07-22T01:44:29.102Z,51.29
2018-07-22T01:45:00.891Z,51.29
2018-07-22T01:45:32.483Z,51.38
2018-07-22T01:46:04.089Z,51.38
2018-07-22T01:46:35.701Z,51.27
2018-07-22T01:47:07.275Z,51.34
2018-07-22T01:47:38.867Z,51.61
2018-07-22T01:48:10.449Z,51.34
2018-07-22T01:48:42.029Z,51.31
2018-07-22T01:49:13.633Z,51.26
2018-07-22T01:49:45.241Z,51.28
2018-07-22T01:50:16.890Z,51.31
2018-07-22T01:50:48.504Z,51.26
2018-07-22T01:51:20.091Z,51.12
2018-07-22T01:51:51.687Z,51.12
2018-07-22T01:52:23.293Z,51.13
2018-07-22T01:52:54.891Z,51.11
2018-07-22T01:53:26.493Z,51.16
2018-07-22T01:53:58.123Z,51.22
2018-07-22T01:54:29.706Z,51.21
2018-07-22T01:55:01.470Z,51.27
2018-07-22T01:55:33.069Z,51.41
2018-07-22T01:56:04.681Z,51.42
2018-07-22T01:56:36.260Z,51.56
2018-07-22T01:57:08.093Z,51.62
2018-07-22T01:57:39.669Z,51.62
2018-07-22T01:58:11.259Z,51.65
2018-07-22T01:58:42.870Z,51.61
2018-07-22T01:59:14.476Z,51.76
2018-07-22T01:59:46.049Z,51.65
2018-07-22T02:00:17.688Z,51.56
2018-07-22T02:00:49.264Z,51.51
2018-07-22T02:01:20.839Z,51.59
2018-07-22T02:01:52.413Z,51.64
2018-07-22T02:02:24.018Z,51.72
2018-07-22T02:02:55.588Z,51.71
2018-07-22T02:03:27.198Z,51.72
2018-07-22T02:03:58.771Z,51.75
2018-07-22T02:04:30.349Z,51.88
2018-07-22T02:05:01.956Z,51.98
2018-07-22T02:05:33.568Z,51.99
2018-07-22T02:06:05.140Z,51.83
2018-07-22T02:06:36.726Z,51.76
2018-07-22T02:07:08.297Z,52.07
2018-07-22T02:07:39.888Z,52.11
2018-07-22T02:08:11.498Z,51.85
2018-07-22T02:08:43.075Z,52.02
2018-07-22T02:09:14.701Z,51.97
2018-07-22T02:09:46.296Z,51.98
2018-07-22T02:10:17.903Z,52.19
2018-07-22T02:10:49.487Z,51.99
2018-07-22T02:11:21.094Z,51.82
2018-07-22T02:11:52.687Z,52.48
2018-07-22T02:12:24.293Z,52.25
2018-07-22T02:12:55.906Z,51.97
2018-07-22T02:13:27.500Z,51.83
2018-07-22T02:13:59.103Z,51.81
2018-07-22T02:14:30.756Z,51.89
2018-07-22T02:15:02.366Z,51.79
2018-07-22T02:15:33.973Z,51.79
2018-07-22T02:16:05.567Z,51.75
2018-07-22T02:16:37.153Z,51.74
2018-07-22T02:17:08.726Z,51.67
2018-07-22T02:17:40.324Z,51.74
2018-07-22T02:18:11.896Z,51.71
2018-07-22T02:18:43.491Z,51.71
2018-07-22T02:19:15.146Z,51.79
2018-07-22T02:19:46.753Z,51.76
2018-07-22T02:20:18.349Z,51.80
2018-07-22T02:20:49.963Z,51.90
2018-07-22T02:21:21.571Z,51.89
2018-07-22T02:21:53.149Z,51.95
2018-07-22T02:22:24.727Z,51.92
2018-07-22T02:22:56.310Z,52.01
2018-07-22T02:23:27.937Z,52.14
2018-07-22T02:23:59.532Z,52.13
2018-07-22T02:24:31.117Z,52.08
2018-07-22T02:25:02.701Z,52.07
2018-07-22T02:25:34.291Z,52.02
2018-07-22T02:26:05.878Z,52.08
2018-07-22T02:26:37.444Z,52.08
2018-07-22T02:27:09.046Z,52.01
2018-07-22T02:27:40.633Z,52.06
2018-07-22T02:28:12.237Z,51.86
2018-07-22T02:28:43.886Z,51.52
2018-07-22T02:29:15.497Z,51.46
2018-07-22T02:29:47.072Z,51.40
2018-07-22T02:30:18.650Z,51.40
2018-07-22T02:30:50.247Z,51.28
2018-07-22T02:31:21.859Z,51.31
2018-07-22T02:31:53.474Z,51.64
2018-07-22T02:32:25.054Z,51.76
2018-07-22T02:32:56.634Z,51.95
2018-07-22T02:33:28.231Z,52.21
2018-07-22T02:33:59.872Z,52.09
2018-07-22T02:34:31.482Z,52.06
2018-07-22T02:35:03.080Z,51.96
2018-07-22T02:35:34.653Z,51.94
2018-07-22T02:36:06.258Z,52.28
2018-07-22T02:36:37.889Z,52.77
2018-07-22T02:37:09.488Z,52.59
2018-07-22T02:37:41.093Z,52.49
2018-07-22T02:38:12.697Z,52.84
2018-07-22T02:38:44.272Z,53.14
2018-07-22T02:39:15.848Z,53.19
2018-07-22T02:39:47.425Z,53.08
2018-07-22T02:40:19.030Z,53.09
2018-07-22T02:40:50.636Z,53.51
2018-07-22T02:41:22.243Z,53.14
2018-07-22T02:41:53.889Z,53.31
2018-07-22T02:42:25.502Z,53.53
2018-07-22T02:42:57.108Z,53.63
2018-07-22T02:43:28.680Z,53.62
2018-07-22T02:44:00.265Z,53.70
2018-07-22T02:44:31.836Z,53.89
2018-07-22T02:45:03.491Z,53.95
2018-07-22T02:45:35.101Z,54.00
2018-07-22T02:46:06.694Z,53.88
2018-07-22T02:46:38.282Z,53.99
2018-07-22T02:47:09.862Z,53.92
2018-07-22T02:47:41.465Z,54.26
2018-07-22T02:48:13.046Z,54.27
2018-07-22T02:48:44.622Z,54.21
2018-07-22T02:49:16.225Z,54.30
2018-07-22T02:49:47.800Z,54.21
2018-07-22T02:50:19.379Z,54.27
2018-07-22T02:50:50.971Z,54.32
2018-07-22T02:51:22.585Z,54.41
2018-07-22T02:51:54.160Z,54.44
2018-07-22T02:52:25.736Z,54.48
2018-07-22T02:52:57.357Z,54.44
2018-07-22T02:53:28.929Z,54.51
2018-07-22T02:54:00.511Z,54.56
2018-07-22T02:54:32.122Z,54.61
2018-07-22T02:55:03.730Z,54.56
2018-07-22T02:55:35.342Z,54.71
2018-07-22T02:56:06.945Z,54.65
2018-07-22T02:56:38.528Z,54.70
2018-07-22T02:57:10.130Z,54.56
2018-07-22T02:57:41.736Z,54.75
2018-07-22T02:58:13.369Z,54.73
2018-07-22T02:58:44.960Z,54.85
2018-07-22T02:59:16.554Z,55.10
2018-07-22T02:59:48.147Z,54.95
2018-07-22T03:00:19.757Z,54.97
2018-07-22T03:00:51.352Z,55.13
2018-07-22T03:01:22.933Z,55.12
2018-07-22T03:01:54.509Z,55.15
2018-07-22T03:02:26.095Z,55.24
2018-07-22T03:02:57.693Z,55.34
2018-07-22T03:03:29.370Z,55.35
2018-07-22T03:04:00.933Z,55.37
2018-07-22T03:04:32.517Z,55.40
2018-07-22T03:05:04.125Z,55.43
2018-07-22T03:05:35.720Z,55.39
2018-07-22T03:06:07.332Z,55.51
2018-07-22T03:06:38.914Z,55.48
2018-07-22T03:07:10.540Z,55.53
2018-07-22T03:07:42.160Z,55.48
2018-07-22T03:08:13.756Z,55.53
2018-07-22T03:08:45.338Z,55.60
2018-07-22T03:09:16.918Z,55.52
2018-07-22T03:09:48.526Z,55.58
2018-07-22T03:10:20.137Z,55.61
2018-07-22T03:10:51.749Z,55.65
2018-07-22T03:11:23.343Z,55.53
2018-07-22T03:11:54.940Z,55.72
2018-07-22T03:12:26.569Z,55.67
2018-07-22T03:12:58.136Z,55.66
2018-07-22T03:13:29.742Z,55.72
2018-07-22T03:14:01.330Z,55.72
2018-07-22T03:14:32.922Z,55.75
2018-07-22T03:15:04.507Z,55.74
2018-07-22T03:15:36.076Z,55.80
2018-07-22T03:16:08.637Z,55.82
2018-07-22T03:16:40.267Z,55.88
2018-07-22T03:17:11.868Z,55.88
2018-07-22T03:17:43.461Z,55.83
2018-07-22T03:18:15.049Z,55.77
2018-07-22T03:18:46.630Z,56.06
2018-07-22T03:19:18.200Z,56.00
2018-07-22T03:19:49.782Z,55.96
2018-07-22T03:20:21.381Z,55.99
2018-07-22T03:20:52.990Z,56.11
2018-07-22T03:21:24.578Z,56.01
2018-07-22T03:21:56.198Z,56.10
2018-07-22T03:22:27.791Z,56.09
2018-07-22T03:22:59.364Z,56.36
2018-07-22T03:23:31.008Z,56.13
2018-07-22T03:24:02.622Z,56.25
2018-07-22T03:24:34.192Z,56.26
2018-07-22T03:25:05.783Z,56.23
2018-07-22T03:25:37.381Z,56.37
2018-07-22T03:26:08.985Z,56.42
2018-07-22T03:26:40.590Z,56.42
2018-07-22T03:27:12.211Z,56.54
2018-07-22T03:27:43.818Z,56.58
2018-07-22T03:28:15.401Z,56.54
2018-07-22T03:28:47.008Z,56.64
2018-07-22T03:29:18.584Z,56.71
2018-07-22T03:29:50.243Z,56.66
2018-07-22T03:30:21.905Z,56.69
2018-07-22T03:30:53.489Z,56.77
2018-07-22T03:31:25.070Z,56.78
2018-07-22T03:31:56.750Z,56.85
2018-07-22T03:32:28.349Z,56.94
2018-07-22T03:32:59.953Z,56.88
2018-07-22T03:33:31.563Z,56.77
2018-07-22T03:34:03.594Z,56.89
2018-07-22T03:34:35.194Z,56.94
2018-07-22T03:35:06.798Z,56.98
2018-07-22T03:35:38.445Z,57.03
2018-07-22T03:36:10.016Z,56.99
2018-07-22T03:36:41.609Z,56.91
2018-07-22T03:37:13.210Z,57.05
2018-07-22T03:37:44.780Z,57.07
2018-07-22T03:38:16.380Z,57.10
2018-07-22T03:38:47.985Z,56.98
2018-07-22T03:39:19.582Z,57.08
2018-07-22T03:39:51.169Z,57.11
2018-07-22T03:40:22.790Z,57.16
2018-07-22T03:40:54.434Z,57.16
2018-07-22T03:41:26.014Z,57.12
2018-07-22T03:41:57.632Z,56.96
2018-07-22T03:42:29.209Z,57.24
2018-07-22T03:43:00.821Z,57.30
2018-07-22T03:43:32.406Z,57.36
2018-07-22T03:44:03.985Z,57.24
2018-07-22T03:44:35.558Z,57.34
2018-07-22T03:45:07.175Z,57.39
2018-07-22T03:45:38.753Z,57.37
2018-07-22T03:46:10.355Z,57.35
2018-07-22T03:46:41.957Z,57.29
2018-07-22T03:47:13.537Z,57.40
2018-07-22T03:47:45.129Z,57.38
2018-07-22T03:48:16.733Z,57.37
2018-07-22T03:48:48.334Z,57.46
2018-07-22T03:49:19.941Z,57.50
2018-07-22T03:49:51.554Z,57.36
2018-07-22T03:50:23.181Z,57.55
2018-07-22T03:50:54.771Z,57.45
2018-07-22T03:51:26.367Z,57.58
2018-07-22T03:51:57.949Z,57.52
2018-07-22T03:52:29.530Z,57.53
2018-07-22T03:53:01.135Z,57.63
2018-07-22T03:53:32.746Z,57.58
2018-07-22T03:54:04.353Z,57.53
2018-07-22T03:54:35.958Z,57.60
2018-07-22T03:55:07.536Z,57.59
2018-07-22T03:55:39.185Z,57.62
2018-07-22T03:56:10.765Z,57.63
2018-07-22T03:56:42.359Z,57.66
2018-07-22T03:57:13.961Z,57.59
2018-07-22T03:57:45.545Z,57.74
2018-07-22T03:58:17.130Z,57.66
2018-07-22T03:58:48.712Z,57.72
2018-07-22T03:59:20.283Z,57.66
2018-07-22T03:59:51.865Z,57.74
2018-07-22T04:00:23.441Z,57.77
2018-07-22T04:00:55.062Z,57.81
2018-07-22T04:01:26.628Z,57.78
2018-07-22T04:01:58.214Z,57.65
2018-07-22T04:02:29.780Z,57.90
2018-07-22T04:03:01.382Z,57.82
2018-07-22T04:03:32.962Z,57.89
2018-07-22T04:04:04.562Z,57.86
2018-07-22T04:04:36.149Z,58.05
2018-07-22T04:05:07.778Z,58.02
2018-07-22T04:05:39.353Z,58.08
2018-07-22T04:06:10.957Z,58.01
2018-07-22T04:06:42.553Z,58.15
2018-07-22T04:07:14.137Z,58.20
2018-07-22T04:07:45.738Z,58.17
2018-07-22T04:08:17.326Z,58.07
2018-07-22T04:08:48.933Z,58.10
2018-07-22T04:09:20.542Z,58.20
2018-07-22T04:09:52.119Z,58.15
2018-07-22T04:10:23.745Z,58.10
2018-07-22T04:10:55.327Z,58.09
2018-07-22T04:11:26.924Z,58.10
2018-07-22T04:11:58.517Z,57.95
2018-07-22T04:12:30.124Z,58.07
2018-07-22T04:13:01.720Z,58.10
2018-07-22T04:13:33.316Z,58.01
2018-07-22T04:14:04.921Z,58.20
2018-07-22T04:14:36.509Z,58.25
2018-07-22T04:15:08.095Z,58.27
2018-07-22T04:15:39.677Z,58.20
2018-07-22T04:16:11.253Z,58.09
2018-07-22T04:16:42.852Z,58.25
2018-07-22T04:17:14.477Z,58.13
2018-07-22T04:17:46.063Z,58.13
2018-07-22T04:18:17.645Z,58.13
2018-07-22T04:18:49.239Z,58.42
2018-07-22T04:19:20.839Z,58.42
2018-07-22T04:19:52.421Z,58.41
2018-07-22T04:20:24.001Z,58.39
2018-07-22T04:20:55.610Z,58.33
2018-07-22T04:21:27.283Z,58.32
2018-07-22T04:21:58.853Z,58.33
2018-07-22T04:22:30.485Z,58.36
2018-07-22T04:23:02.074Z,58.31
2018-07-22T04:23:33.678Z,58.33
2018-07-22T04:24:05.253Z,58.28
2018-07-22T04:24:36.848Z,58.18
2018-07-22T04:25:08.423Z,58.06
2018-07-22T04:25:40.006Z,58.14
2018-07-22T04:26:11.610Z,58.03
2018-07-22T04:26:43.203Z,58.02
2018-07-22T04:27:14.776Z,57.96
2018-07-22T04:27:46.421Z,57.97
2018-07-22T04:28:18.025Z,57.82
2018-07-22T04:28:49.599Z,57.81
2018-07-22T04:29:21.181Z,57.70
2018-07-22T04:29:52.794Z,57.71
2018-07-22T04:30:24.401Z,57.61
2018-07-22T04:30:55.984Z,57.59
2018-07-22T04:31:27.581Z,57.50
2018-07-22T04:31:59.175Z,57.51
2018-07-22T04:32:30.755Z,57.48
2018-07-22T04:33:02.440Z,57.33
2018-07-22T04:33:34.045Z,57.24
2018-07-22T04:34:05.653Z,57.21
2018-07-22T04:34:37.288Z,57.20
2018-07-22T04:35:08.869Z,57.08
2018-07-22T04:35:40.450Z,57.20
2018-07-22T04:36:12.038Z,57.35
2018-07-22T04:36:43.617Z,57.54
2018-07-22T04:37:15.211Z,57.71
2018-07-22T04:37:47.841Z,57.79
2018-07-22T04:38:19.412Z,57.88
2018-07-22T04:38:51.001Z,58.06
2018-07-22T04:39:22.568Z,58.36
2018-07-22T04:39:54.208Z,58.46
2018-07-22T04:40:25.829Z,58.43
2018-07-22T04:40:57.539Z,58.29
2018-07-22T04:41:29.072Z,58.22
2018-07-22T04:42:00.719Z,58.33
2018-07-22T04:42:32.329Z,58.27
2018-07-22T04:43:03.922Z,58.24
2018-07-22T04:43:35.521Z,58.19
2018-07-22T04:44:07.176Z,58.17
2018-07-22T04:44:38.782Z,58.27
2018-07-22T04:45:10.359Z,58.32
2018-07-22T04:45:41.962Z,58.39
2018-07-22T04:46:13.569Z,58.40
2018-07-22T04:46:45.140Z,58.45
2018-07-22T04:47:16.707Z,58.51
2018-07-22T04:47:48.285Z,58.47
2018-07-22T04:48:19.875Z,58.50
2018-07-22T04:48:51.460Z,58.60
2018-07-22T04:49:23.185Z,58.63
2018-07-22T04:49:54.783Z,58.65
2018-07-22T04:50:26.380Z,58.67
2018-07-22T04:50:57.952Z,58.73
2018-07-22T04:51:29.553Z,58.66
2018-07-22T04:52:01.156Z,58.76
2018-07-22T04:52:32.742Z,58.75
2018-07-22T04:53:04.331Z,58.75
2018-07-22T04:53:35.966Z,58.76
2018-07-22T04:54:07.573Z,58.83
2018-07-22T04:54:39.207Z,58.88
2018-07-22T04:55:10.790Z,58.84
2018-07-22T04:55:42.381Z,58.76
2018-07-22T04:56:13.971Z,58.82
2018-07-22T04:56:45.554Z,58.80
2018-07-22T04:57:17.137Z,58.88
2018-07-22T04:57:48.741Z,58.86
2018-07-22T04:58:20.345Z,58.74
2018-07-22T04:58:51.920Z,58.78
2018-07-22T04:59:23.531Z,58.74
2018-07-22T04:59:55.152Z,58.69
2018-07-22T05:00:26.753Z,58.74
2018-07-22T05:00:58.358Z,58.76
2018-07-22T05:01:29.976Z,58.79
2018-07-22T05:02:01.580Z,58.83
2018-07-22T05:02:33.148Z,58.96
2018-07-22T05:03:04.749Z,58.94
2018-07-22T05:03:36.330Z,59.04
2018-07-22T05:04:07.913Z,59.08
2018-07-22T05:04:39.524Z,59.18
2018-07-22T05:05:11.109Z,59.17
2018-07-22T05:05:42.689Z,59.29
2018-07-22T05:06:14.310Z,59.48
2018-07-22T05:06:45.904Z,59.37
2018-07-22T05:07:17.499Z,59.35
2018-07-22T05:07:49.103Z,59.35
2018-07-22T05:08:20.679Z,59.43
2018-07-22T05:08:52.276Z,59.47
2018-07-22T05:09:23.862Z,59.45
2018-07-22T05:09:55.431Z,59.46
2018-07-22T05:10:27.057Z,59.52
2018-07-22T05:10:58.665Z,59.52
2018-07-22T05:11:30.269Z,59.50
2018-07-22T05:12:01.853Z,59.52
2018-07-22T05:12:33.428Z,59.54
2018-07-22T05:13:05.032Z,59.55
2018-07-22T05:13:36.627Z,59.53
2018-07-22T05:14:08.245Z,59.56
2018-07-22T05:14:39.825Z,59.56
2018-07-22T05:15:11.425Z,59.49
2018-07-22T05:15:43.053Z,59.51
2018-07-22T05:16:14.638Z,59.62
2018-07-22T05:16:46.238Z,59.62
2018-07-22T05:17:17.824Z,59.60
2018-07-22T05:17:49.395Z,59.62
2018-07-22T05:18:20.973Z,59.65
2018-07-22T05:18:52.580Z,59.60
2018-07-22T05:19:24.185Z,59.64
2018-07-22T05:19:55.797Z,59.66
2018-07-22T05:20:27.377Z,59.62
2018-07-22T05:20:59.025Z,59.71
2018-07-22T05:21:30.653Z,59.65
2018-07-22T05:22:02.247Z,59.64
2018-07-22T05:22:33.848Z,59.73
2018-07-22T05:23:05.453Z,59.69
2018-07-22T05:23:37.087Z,59.72
2018-07-22T05:24:08.699Z,59.71
2018-07-22T05:24:40.271Z,59.73
2018-07-22T05:25:11.849Z,59.70
2018-07-22T05:25:43.423Z,59.70
2018-07-22T05:26:15.016Z,59.75
2018-07-22T05:26:46.611Z,59.89
2018-07-22T05:27:18.213Z,59.85
2018-07-22T05:27:49.793Z,59.53
2018-07-22T05:28:21.411Z,59.70
2018-07-22T05:28:52.985Z,59.79
2018-07-22T05:29:24.589Z,59.83
2018-07-22T05:29:56.175Z,60.08
2018-07-22T05:30:27.739Z,60.20
2018-07-22T05:30:59.341Z,60.12
2018-07-22T05:31:30.923Z,60.31
2018-07-22T05:32:02.497Z,60.15
2018-07-22T05:32:34.105Z,60.09
2018-07-22T05:33:05.685Z,59.92
2018-07-22T05:33:37.265Z,59.82
2018-07-22T05:34:08.910Z,59.74
2018-07-22T05:34:40.534Z,59.87
2018-07-22T05:35:12.100Z,59.82
2018-07-22T05:35:43.702Z,60.06
2018-07-22T05:36:15.296Z,59.75
2018-07-22T05:36:46.906Z,59.78
2018-07-22T05:37:18.476Z,59.36
2018-07-22T05:37:50.060Z,58.95
2018-07-22T05:38:21.663Z,58.87
2018-07-22T05:38:53.294Z,60.67
2018-07-22T05:39:24.878Z,58.63
2018-07-22T05:39:56.505Z,59.40
2018-07-22T05:40:28.080Z,59.58
2018-07-22T05:40:59.686Z,59.59
2018-07-22T05:41:31.276Z,59.71
2018-07-22T05:42:02.852Z,59.59
2018-07-22T05:42:34.477Z,59.64
2018-07-22T05:43:06.050Z,59.63
2018-07-22T05:43:37.633Z,59.67
2018-07-22T05:44:09.247Z,59.70
2018-07-22T05:44:40.834Z,59.77
2018-07-22T05:45:12.444Z,59.78
2018-07-22T05:45:44.065Z,59.77
2018-07-22T05:46:15.649Z,59.85
2018-07-22T05:46:47.219Z,59.82
2018-07-22T05:47:18.792Z,59.94
2018-07-22T05:47:50.396Z,59.84
2018-07-22T05:48:21.983Z,59.85
2018-07-22T05:48:53.580Z,59.82
2018-07-22T05:49:25.184Z,59.96
2018-07-22T05:49:56.777Z,60.10
2018-07-22T05:50:28.353Z,60.11
2018-07-22T05:50:59.929Z,60.04
2018-07-22T05:51:31.536Z,60.22
2018-07-22T05:52:03.141Z,60.12
2018-07-22T05:52:34.741Z,59.88
2018-07-22T05:53:06.321Z,60.12
2018-07-22T05:53:37.902Z,60.23
2018-07-22T05:54:09.477Z,60.24
2018-07-22T05:54:41.138Z,60.24
2018-07-22T05:55:12.741Z,60.09
2018-07-22T05:55:44.346Z,60.28
2018-07-22T05:56:15.953Z,60.27
2018-07-22T05:56:47.528Z,60.20
2018-07-22T05:57:19.137Z,60.22
2018-07-22T05:57:50.732Z,60.26
2018-07-22T05:58:22.337Z,60.26
2018-07-22T05:58:53.941Z,60.20
2018-07-22T05:59:25.530Z,60.34
2018-07-22T05:59:57.149Z,60.30
2018-07-22T06:00:28.725Z,60.46
2018-07-22T06:01:00.309Z,60.07
2018-07-22T06:01:31.916Z,59.81
2018-07-22T06:02:03.520Z,59.12
2018-07-22T06:02:35.107Z,57.72
2018-07-22T06:03:06.760Z,57.52
2018-07-22T06:03:38.342Z,55.96
2018-07-22T06:04:09.974Z,55.38
2018-07-22T06:04:41.553Z,55.56
2018-07-22T06:05:13.168Z,55.34
2018-07-22T06:05:44.743Z,55.03
2018-07-22T06:06:16.353Z,54.71
2018-07-22T06:06:47.941Z,54.78
2018-07-22T06:07:19.527Z,54.47
2018-07-22T06:07:51.120Z,54.58
2018-07-22T06:08:22.726Z,54.99
2018-07-22T06:08:54.300Z,55.73
2018-07-22T06:09:25.902Z,54.85
2018-07-22T06:09:57.513Z,54.62
2018-07-22T06:10:29.152Z,54.41
2018-07-22T06:11:00.734Z,54.23
2018-07-22T06:11:32.314Z,54.42
2018-07-22T06:12:03.977Z,54.01
2018-07-22T06:12:35.553Z,54.08
2018-07-22T06:13:07.152Z,53.76
2018-07-22T06:13:38.728Z,53.62
2018-07-22T06:14:10.373Z,53.66
2018-07-22T06:14:42.026Z,53.62
2018-07-22T06:15:13.608Z,53.88
2018-07-22T06:15:45.209Z,53.51
2018-07-22T06:16:16.829Z,53.73
2018-07-22T06:16:48.466Z,53.83
2018-07-22T06:17:20.042Z,53.55
2018-07-22T06:17:51.689Z,54.14
2018-07-22T06:18:23.297Z,53.53
2018-07-22T06:18:54.881Z,53.61
2018-07-22T06:19:26.476Z,53.79
2018-07-22T06:19:58.057Z,53.78
2018-07-22T06:20:29.672Z,54.87
2018-07-22T06:21:01.248Z,53.67
2018-07-22T06:21:32.828Z,53.74
2018-07-22T06:22:04.417Z,53.81
2018-07-22T06:22:36.016Z,53.60
2018-07-22T06:23:07.602Z,53.51
2018-07-22T06:23:39.201Z,53.96
2018-07-22T06:24:10.782Z,54.33
2018-07-22T06:24:42.363Z,53.59
2018-07-22T06:25:13.961Z,53.16
2018-07-22T06:25:45.551Z,53.96
2018-07-22T06:26:17.123Z,53.66
2018-07-22T06:26:48.728Z,53.50
2018-07-22T06:27:20.308Z,53.33
2018-07-22T06:27:51.890Z,53.13
2018-07-22T06:28:23.501Z,53.37
2018-07-22T06:28:55.243Z,53.73
2018-07-22T06:29:26.883Z,53.78
2018-07-22T06:29:58.504Z,53.63
2018-07-22T06:30:30.081Z,53.68
2018-07-22T06:31:01.690Z,53.48
2018-07-22T06:31:34.637Z,54.02
2018-07-22T06:32:06.235Z,54.35
2018-07-22T06:32:37.850Z,54.13
2018-07-22T06:33:09.433Z,54.01
2018-07-22T06:33:41.011Z,54.54
2018-07-22T06:34:12.594Z,54.12
2018-07-22T06:34:44.173Z,53.56
2018-07-22T06:35:15.879Z,53.57
2018-07-22T06:35:47.437Z,53.23
2018-07-22T06:36:20.673Z,53.27
2018-07-22T06:36:52.353Z,53.21
2018-07-22T06:37:23.920Z,53.21
2018-07-22T06:37:55.497Z,53.37
2018-07-22T06:38:27.087Z,53.75
2018-07-22T06:38:58.665Z,53.33
2018-07-22T06:39:30.255Z,52.68
2018-07-22T06:40:01.848Z,52.64
2018-07-22T06:40:33.450Z,52.24
2018-07-22T06:41:05.084Z,52.29
2018-07-22T06:41:36.694Z,52.10
2018-07-22T06:42:08.303Z,52.00
2018-07-22T06:42:39.912Z,51.83
2018-07-22T06:43:11.483Z,51.79
2018-07-22T06:43:43.073Z,51.89
2018-07-22T06:44:14.652Z,51.71
2018-07-22T06:44:46.223Z,51.38
2018-07-22T06:45:17.812Z,51.48
2018-07-22T06:45:49.419Z,51.52
2018-07-22T06:46:21.010Z,51.39
2018-07-22T06:46:52.621Z,51.37